createdAt,value
2018-08-22T00:00:29.977Z,11.50
2018-08-22T00:02:58.171Z,10.63
2018-08-22T00:05:26.346Z,12.03
2018-08-22T00:07:54.543Z,11.47
2018-08-22T00:10:22.721Z,11.77
2018-08-22T00:12:50.899Z,12.07
2018-08-22T00:15:19.129Z,10.93
2018-08-22T00:17:47.266Z,11.90
2018-08-22T00:20:15.476Z,12.10
2018-08-22T00:22:43.643Z,11.83
2018-08-22T00:25:11.823Z,12.27
2018-08-22T00:27:40.002Z,11.50
2018-08-22T00:30:08.198Z,11.13
2018-08-22T00:32:36.371Z,11.07
2018-08-22T00:35:04.598Z,11.67
2018-08-22T00:37:32.766Z,12.30
2018-08-22T00:40:00.947Z,11.83
2018-08-22T00:42:29.114Z,11.30
2018-08-22T00:44:57.306Z,10.97
2018-08-22T00:47:25.466Z,11.30
2018-08-22T00:49:53.650Z,11.40
2018-08-22T00:52:21.835Z,11.33
2018-08-22T00:54:50.045Z,11.10
2018-08-22T00:57:18.218Z,10.30
2018-08-22T00:59:46.389Z,11.30
2018-08-22T01:02:14.572Z,10.67
2018-08-22T01:04:42.738Z,10.60
2018-08-22T01:07:10.910Z,11.23
2018-08-22T01:09:39.076Z,11.17
2018-08-22T01:12:07.263Z,10.90
2018-08-22T01:14:35.495Z,11.67
2018-08-22T01:17:03.670Z,11.13
2018-08-22T01:19:31.863Z,11.47
2018-08-22T01:22:00.055Z,11.20
2018-08-22T01:24:28.238Z,11.17
2018-08-22T01:26:56.437Z,11.10
2018-08-22T01:29:24.636Z,11.07
2018-08-22T01:31:52.809Z,11.43
2018-08-22T01:34:20.990Z,11.17
2018-08-22T01:36:49.165Z,10.70
2018-08-22T01:39:17.351Z,11.70
2018-08-22T01:41:45.529Z,14.63
2018-08-22T01:44:13.703Z,11.40
2018-08-22T01:46:41.906Z,11.27
2018-08-22T01:49:10.087Z,11.10
2018-08-22T01:51:38.262Z,11.80
2018-08-22T01:54:06.435Z,11.23
2018-08-22T01:56:34.602Z,10.67
2018-08-22T01:59:02.781Z,10.50
2018-08-22T02:01:30.958Z,11.63
2018-08-22T02:03:59.136Z,10.80
2018-08-22T02:06:27.290Z,10.93
2018-08-22T02:08:55.476Z,11.20
2018-08-22T02:11:23.659Z,11.03
2018-08-22T02:13:51.847Z,11.30
2018-08-22T02:16:20.026Z,11.50
2018-08-22T02:18:48.202Z,12.67
2018-08-22T02:21:16.382Z,11.47
2018-08-22T02:23:44.562Z,10.80
2018-08-22T02:26:12.742Z,10.93
2018-08-22T02:28:40.920Z,10.20
2018-08-22T02:31:09.097Z,10.93
2018-08-22T02:33:37.271Z,10.17
2018-08-22T02:36:05.461Z,10.90
2018-08-22T02:38:33.614Z,11.40
2018-08-22T02:41:01.790Z,10.60
2018-08-22T02:43:29.966Z,10.70
2018-08-22T02:45:58.159Z,10.20
2018-08-22T02:48:26.317Z,10.80
2018-08-22T02:50:54.479Z,10.13
2018-08-22T02:53:22.650Z,11.03
2018-08-22T02:55:50.842Z,11.90
2018-08-22T02:58:19.031Z,12.23
2018-08-22T03:00:47.218Z,11.70
2018-08-22T03:03:15.378Z,10.97
2018-08-22T03:05:43.559Z,10.60
2018-08-22T03:08:11.729Z,10.87
2018-08-22T03:10:39.917Z,11.30
2018-08-22T03:13:08.091Z,10.77
2018-08-22T03:15:36.274Z,11.40
2018-08-22T03:18:04.441Z,11.30
2018-08-22T03:20:32.627Z,10.77
2018-08-22T03:23:00.822Z,10.80
2018-08-22T03:25:29.013Z,11.00
2018-08-22T03:27:57.283Z,10.50
2018-08-22T03:30:25.451Z,11.10
2018-08-22T03:32:53.627Z,11.40
2018-08-22T03:35:21.827Z,11.13
2018-08-22T03:37:50.002Z,12.17
2018-08-22T03:40:18.195Z,11.60
2018-08-22T03:42:46.359Z,12.03
2018-08-22T03:45:14.538Z,11.00
2018-08-22T03:47:42.719Z,10.93
2018-08-22T03:50:10.899Z,11.67
2018-08-22T03:52:39.132Z,10.30
2018-08-22T03:55:07.304Z,10.13
2018-08-22T03:57:35.478Z,9.87
2018-08-22T04:00:03.677Z,10.00
2018-08-22T04:02:31.863Z,9.83
2018-08-22T04:05:00.039Z,10.87
2018-08-22T04:07:28.211Z,8.40
2018-08-22T04:09:56.402Z,10.77
2018-08-22T04:12:24.618Z,9.90
2018-08-22T04:14:52.758Z,9.67
2018-08-22T04:17:20.920Z,9.30
2018-08-22T04:19:49.090Z,9.67
2018-08-22T04:22:17.402Z,9.50
2018-08-22T04:24:45.630Z,10.77
2018-08-22T04:27:13.810Z,9.87
2018-08-22T04:29:41.971Z,9.90
2018-08-22T04:32:10.134Z,9.20
2018-08-22T04:34:38.327Z,9.37
2018-08-22T04:37:06.487Z,9.43
2018-08-22T04:39:34.667Z,10.17
2018-08-22T04:42:02.843Z,10.20
2018-08-22T04:44:31.017Z,10.13
2018-08-22T04:46:59.182Z,9.30
2018-08-22T04:49:27.360Z,9.37
2018-08-22T04:51:55.531Z,8.83
2018-08-22T04:54:23.735Z,9.43
2018-08-22T04:56:51.894Z,9.07
2018-08-22T04:59:20.062Z,8.70
2018-08-22T05:01:48.247Z,9.53
2018-08-22T05:04:16.406Z,9.33
2018-08-22T05:06:44.590Z,9.60
2018-08-22T05:09:12.744Z,9.57
2018-08-22T05:11:40.915Z,9.93
2018-08-22T05:14:09.094Z,10.00
2018-08-22T05:16:37.283Z,9.87
2018-08-22T05:19:05.450Z,10.47
2018-08-22T05:21:33.641Z,10.13
2018-08-22T05:24:01.810Z,10.53
2018-08-22T05:26:29.991Z,9.63
2018-08-22T05:28:58.159Z,10.13
2018-08-22T05:31:26.330Z,10.83
2018-08-22T05:33:54.491Z,10.03
2018-08-22T05:36:22.670Z,9.70
2018-08-22T05:38:50.850Z,9.13
2018-08-22T05:41:19.134Z,10.23
2018-08-22T05:43:47.306Z,9.40
2018-08-22T05:46:15.482Z,8.90
2018-08-22T05:48:43.670Z,9.30
2018-08-22T05:51:11.914Z,9.30
2018-08-22T05:53:40.080Z,10.67
2018-08-22T05:56:08.304Z,10.03
2018-08-22T05:58:36.479Z,10.07
2018-08-22T06:01:04.691Z,10.70
2018-08-22T06:03:32.860Z,10.33
2018-08-22T06:06:01.111Z,9.97
2018-08-22T06:08:29.279Z,10.30
2018-08-22T06:10:57.453Z,9.90
2018-08-22T06:13:25.626Z,9.80
2018-08-22T06:15:53.790Z,10.63
2018-08-22T06:18:21.990Z,11.10
2018-08-22T06:20:50.151Z,10.93
2018-08-22T06:23:18.430Z,10.70
2018-08-22T06:25:46.606Z,10.40
2018-08-22T06:28:14.789Z,10.37
2018-08-22T06:30:43.239Z,10.13
2018-08-22T06:33:11.426Z,10.43
2018-08-22T06:35:39.592Z,10.37
2018-08-22T06:38:13.306Z,11.40
2018-08-22T06:40:41.485Z,11.27
2018-08-22T06:43:09.667Z,10.70
2018-08-22T06:45:37.843Z,11.70
2018-08-22T06:48:06.049Z,11.20
2018-08-22T06:50:34.213Z,10.67
2018-08-22T06:53:02.381Z,10.73
2018-08-22T06:55:30.581Z,10.67
2018-08-22T06:57:58.787Z,11.60
2018-08-22T07:00:26.985Z,10.97
2018-08-22T07:02:55.258Z,11.23
2018-08-22T07:05:23.454Z,11.43
2018-08-22T07:07:51.682Z,10.80
2018-08-22T07:10:19.863Z,11.13
2018-08-22T07:12:48.025Z,10.23
2018-08-22T07:15:16.219Z,10.90
2018-08-22T07:17:44.413Z,11.43
2018-08-22T07:20:12.596Z,10.80
2018-08-22T07:22:40.762Z,10.73
2018-08-22T07:25:08.958Z,11.93
2018-08-22T07:27:37.156Z,11.27
2018-08-22T07:30:05.766Z,11.63
2018-08-22T07:32:33.914Z,11.20
2018-08-22T07:35:02.102Z,11.13
2018-08-22T07:37:30.271Z,11.00
2018-08-22T07:39:58.463Z,11.23
2018-08-22T07:42:26.652Z,11.83
2018-08-22T07:44:54.814Z,11.57
2018-08-22T07:47:22.998Z,11.30
2018-08-22T07:49:51.190Z,11.77
2018-08-22T07:52:19.407Z,10.73
2018-08-22T07:54:47.914Z,11.70
2018-08-22T07:57:17.439Z,11.37
2018-08-22T07:59:45.686Z,11.53
2018-08-22T08:02:13.866Z,13.13
2018-08-22T08:04:42.046Z,10.30
2018-08-22T08:07:10.255Z,10.43
2018-08-22T08:09:38.428Z,10.40
2018-08-22T08:12:06.602Z,10.97
2018-08-22T08:14:35.161Z,10.70
2018-08-22T08:17:14.341Z,10.37
2018-08-22T08:19:42.498Z,10.53
2018-08-22T08:22:10.679Z,10.87
2018-08-22T08:24:38.874Z,10.47
2018-08-22T08:27:07.077Z,10.70
2018-08-22T08:29:35.248Z,11.70
2018-08-22T08:32:03.462Z,10.03
2018-08-22T08:34:31.650Z,11.03
2018-08-22T08:36:59.842Z,10.70
2018-08-22T08:39:28.051Z,11.57
2018-08-22T08:41:56.245Z,11.17
2018-08-22T08:44:24.435Z,11.23
2018-08-22T08:46:52.853Z,10.60
2018-08-22T08:49:21.073Z,10.50
2018-08-22T08:51:57.732Z,10.63
2018-08-22T08:54:25.967Z,11.83
2018-08-22T08:56:54.176Z,11.90
2018-08-22T08:59:22.418Z,10.73
2018-08-22T09:01:50.603Z,10.57
2018-08-22T09:04:18.815Z,10.80
2018-08-22T09:06:47.291Z,10.57
2018-08-22T09:09:15.475Z,11.37
2018-08-22T09:11:48.702Z,10.70
2018-08-22T09:14:16.888Z,10.93
2018-08-22T09:16:45.058Z,10.90
2018-08-22T09:19:13.241Z,10.97
2018-08-22T09:21:41.410Z,11.00
2018-08-22T09:24:09.615Z,11.90
2018-08-22T09:26:37.779Z,11.57
2018-08-22T09:29:05.962Z,12.13
2018-08-22T09:31:34.128Z,10.60
2018-08-22T09:34:02.301Z,10.50
2018-08-22T09:36:30.470Z,11.37
2018-08-22T09:38:58.645Z,12.33
2018-08-22T09:41:27.059Z,12.27
2018-08-22T09:43:55.228Z,12.50
2018-08-22T09:46:23.420Z,11.13
2018-08-22T09:48:51.790Z,11.80
2018-08-22T09:51:19.958Z,12.20
2018-08-22T09:53:48.141Z,11.30
2018-08-22T09:56:16.322Z,11.90
2018-08-22T09:58:44.494Z,12.43
2018-08-22T10:01:17.994Z,11.50
2018-08-22T10:03:53.326Z,11.40
2018-08-22T10:06:48.418Z,11.40
2018-08-22T10:09:22.042Z,12.93
2018-08-22T10:11:50.218Z,13.23
2018-08-22T10:14:18.431Z,13.00
2018-08-22T10:16:46.603Z,14.80
2018-08-22T10:19:14.778Z,12.17
2018-08-22T10:21:42.951Z,13.47
2018-08-22T10:24:11.136Z,12.17
2018-08-22T10:26:39.371Z,11.93
2018-08-22T10:29:07.515Z,12.20
2018-08-22T10:31:35.689Z,12.00
2018-08-22T10:34:03.910Z,13.60
2018-08-22T10:36:32.092Z,11.80
2018-08-22T10:39:00.268Z,11.50
2018-08-22T10:41:28.450Z,12.13
2018-08-22T10:43:56.630Z,11.80
2018-08-22T10:46:24.812Z,12.20
2018-08-22T10:48:52.986Z,12.83
2018-08-22T10:51:21.180Z,13.03
2018-08-22T10:53:49.375Z,12.97
2018-08-22T10:56:17.546Z,12.10
2018-08-22T10:58:45.720Z,13.50
2018-08-22T11:01:13.913Z,14.00
2018-08-22T11:03:42.077Z,13.40
2018-08-22T11:06:10.259Z,13.17
2018-08-22T11:08:38.432Z,13.40
2018-08-22T11:11:06.608Z,13.83
2018-08-22T11:13:34.771Z,13.20
2018-08-22T11:16:03.035Z,13.90
2018-08-22T11:18:31.191Z,14.77
2018-08-22T11:21:10.720Z,14.30
2018-08-22T11:23:50.078Z,13.67
2018-08-22T11:26:29.403Z,14.67
2018-08-22T11:29:09.006Z,13.93
2018-08-22T11:31:48.367Z,13.57
2018-08-22T11:34:27.726Z,15.60
2018-08-22T11:37:02.963Z,14.80
2018-08-22T11:39:31.210Z,15.83
2018-08-22T11:41:59.474Z,13.30
2018-08-22T11:44:27.696Z,14.57
2018-08-22T11:46:56.750Z,13.40
2018-08-22T11:49:24.931Z,15.63
2018-08-22T11:51:53.166Z,15.40
2018-08-22T11:54:21.411Z,16.17
2018-08-22T11:56:49.603Z,15.47
2018-08-22T11:59:18.192Z,16.30
2018-08-22T12:01:46.394Z,16.23
2018-08-22T12:04:14.583Z,15.47
2018-08-22T12:06:42.798Z,15.40
2018-08-22T12:09:12.480Z,15.10
2018-08-22T12:11:41.115Z,15.90
2018-08-22T12:14:09.809Z,16.10
2018-08-22T12:16:38.283Z,14.70
2018-08-22T12:19:06.870Z,17.83
2018-08-22T12:21:35.067Z,19.10
2018-08-22T12:24:03.623Z,16.80
2018-08-22T12:26:31.805Z,18.33
2018-08-22T12:29:00.019Z,19.03
2018-08-22T12:31:28.548Z,18.23
2018-08-22T12:33:56.738Z,20.17
2018-08-22T12:36:24.915Z,18.30
2018-08-22T12:38:53.084Z,19.63
2018-08-22T12:41:21.258Z,19.23
2018-08-22T12:43:49.438Z,19.50
2018-08-22T12:46:17.660Z,18.50
2018-08-22T12:48:45.831Z,17.73
2018-08-22T12:51:14.079Z,18.40
2018-08-22T12:53:42.259Z,18.40
2018-08-22T12:56:10.435Z,15.37
2018-08-22T12:58:38.649Z,16.60
2018-08-22T13:01:07.163Z,16.23
2018-08-22T13:03:35.351Z,22.30
2018-08-22T13:06:03.617Z,18.73
2018-08-22T13:08:31.793Z,16.40
2018-08-22T13:10:59.992Z,18.63
2018-08-22T13:13:28.151Z,18.03
2018-08-22T13:15:56.378Z,16.40
2018-08-22T13:18:24.558Z,18.80
2018-08-22T13:20:52.730Z,18.53
2018-08-22T13:23:21.027Z,18.10
2018-08-22T13:25:49.218Z,17.73
2018-08-22T13:28:17.391Z,17.10
2018-08-22T13:30:45.559Z,18.60
2018-08-22T13:33:13.734Z,19.27
2018-08-22T13:35:41.919Z,19.37
2018-08-22T13:38:10.102Z,18.37
2018-08-22T13:40:38.291Z,18.10
2018-08-22T13:43:06.514Z,17.77
2018-08-22T13:45:34.690Z,23.53
2018-08-22T13:48:02.876Z,17.47
2018-08-22T13:50:31.042Z,18.73
2018-08-22T13:52:59.249Z,19.47
2018-08-22T13:55:27.509Z,21.30
2018-08-22T13:57:55.687Z,19.40
2018-08-22T14:00:23.859Z,19.13
2018-08-22T14:02:52.083Z,19.53
2018-08-22T14:05:20.223Z,16.60
2018-08-22T14:07:48.396Z,14.03
2018-08-22T14:10:16.594Z,18.23
2018-08-22T14:12:44.771Z,16.33
2018-08-22T14:15:13.370Z,18.33
2018-08-22T14:17:41.597Z,18.27
2018-08-22T14:20:09.783Z,17.33
2018-08-22T14:22:37.966Z,18.27
2018-08-22T14:25:06.143Z,19.57
2018-08-22T14:27:34.333Z,18.30
2018-08-22T14:30:02.514Z,18.20
2018-08-22T14:32:30.694Z,21.13
2018-08-22T14:34:58.871Z,18.50
2018-08-22T14:37:27.054Z,21.30
2018-08-22T14:39:55.239Z,21.87
2018-08-22T14:42:35.878Z,19.17
2018-08-22T14:45:04.064Z,20.40
2018-08-22T14:47:32.260Z,19.83
2018-08-22T14:50:00.422Z,19.30
2018-08-22T14:52:28.604Z,18.20
2018-08-22T14:54:57.099Z,16.60
2018-08-22T14:57:25.259Z,16.47
2018-08-22T14:59:53.431Z,18.30
2018-08-22T15:02:21.689Z,17.70
2018-08-22T15:04:49.766Z,17.23
2018-08-22T15:07:17.948Z,17.53
2018-08-22T15:09:46.110Z,17.33
2018-08-22T15:12:14.274Z,17.30
2018-08-22T15:14:42.451Z,17.20
2018-08-22T15:17:10.622Z,17.57
2018-08-22T15:19:38.825Z,18.00
2018-08-22T15:22:07.005Z,18.33
2018-08-22T15:24:35.187Z,18.63
2018-08-22T15:27:03.399Z,19.80
2018-08-22T15:29:31.595Z,18.77
2018-08-22T15:31:59.771Z,15.83
2018-08-22T15:34:39.326Z,17.20
2018-08-22T15:37:07.502Z,20.60
2018-08-22T15:39:35.681Z,18.73
2018-08-22T15:42:03.946Z,18.23
2018-08-22T15:44:32.046Z,16.63
2018-08-22T15:47:00.223Z,17.20
2018-08-22T15:49:28.398Z,17.13
2018-08-22T15:51:56.619Z,19.73
2018-08-22T15:54:24.808Z,17.53
2018-08-22T15:56:53.023Z,17.77
2018-08-22T15:59:21.165Z,17.90
2018-08-22T16:01:49.338Z,19.93
2018-08-22T16:04:17.507Z,19.03
2018-08-22T16:06:48.264Z,20.73
2018-08-22T16:09:20.559Z,18.63
2018-08-22T16:11:48.739Z,21.47
2018-08-22T16:14:16.908Z,19.00
2018-08-22T16:16:45.070Z,19.10
2018-08-22T16:19:13.299Z,21.10
2018-08-22T16:21:41.463Z,20.00
2018-08-22T16:24:09.663Z,19.00
2018-08-22T16:26:37.833Z,21.17
2018-08-22T16:29:06.114Z,18.93
2018-08-22T16:31:44.766Z,23.00
2018-08-22T16:34:13.438Z,18.67
2018-08-22T16:36:41.614Z,19.57
2018-08-22T16:39:10.313Z,22.27
2018-08-22T16:41:38.691Z,23.30
2018-08-22T16:44:06.888Z,22.90
2018-08-22T16:46:35.067Z,22.60
2018-08-22T16:49:03.270Z,22.23
2018-08-22T16:51:31.466Z,23.27
2018-08-22T16:54:04.974Z,20.93
2018-08-22T16:56:34.102Z,20.47
2018-08-22T16:59:07.507Z,21.10
2018-08-22T17:01:36.231Z,22.77
2018-08-22T17:04:04.510Z,21.53
2018-08-22T17:06:32.687Z,20.53
2018-08-22T17:09:00.862Z,25.93
2018-08-22T17:11:29.048Z,24.30
2018-08-22T17:13:57.238Z,21.43
2018-08-22T17:16:25.826Z,21.30
2018-08-22T17:18:54.074Z,22.80
2018-08-22T17:21:22.283Z,24.13
2018-08-22T17:23:50.759Z,21.40
2018-08-22T17:26:19.964Z,21.83
2018-08-22T17:28:50.242Z,21.97
2018-08-22T17:31:19.175Z,21.67
2018-08-22T17:33:57.596Z,19.73
2018-08-22T17:36:25.864Z,20.90
2018-08-22T17:38:55.362Z,23.27
2018-08-22T17:41:24.995Z,21.40
2018-08-22T17:43:59.315Z,19.70
2018-08-22T17:46:29.259Z,21.93
2018-08-22T17:48:57.686Z,20.93
2018-08-22T17:51:25.882Z,23.07
2018-08-22T17:53:54.065Z,21.23
2018-08-22T17:56:23.537Z,21.43
2018-08-22T17:58:52.655Z,23.07
2018-08-22T18:01:21.116Z,24.87
2018-08-22T18:03:49.303Z,25.17
2018-08-22T18:06:17.651Z,24.40
2018-08-22T18:08:45.805Z,25.00
2018-08-22T18:11:13.971Z,24.37
2018-08-22T18:13:42.166Z,21.40
2018-08-22T18:16:10.307Z,24.27
2018-08-22T18:18:38.483Z,22.30
2018-08-22T18:21:06.693Z,22.63
2018-08-22T18:23:37.418Z,23.47
2018-08-22T18:26:06.019Z,20.77
2018-08-22T18:28:34.208Z,22.17
2018-08-22T18:31:02.374Z,24.10
2018-08-22T18:33:30.558Z,22.10
2018-08-22T18:35:58.711Z,22.27
2018-08-22T18:38:26.894Z,21.77
2018-08-22T18:41:05.869Z,23.73
2018-08-22T18:43:34.067Z,25.60
2018-08-22T18:46:05.566Z,24.57
2018-08-22T18:48:34.705Z,22.93
2018-08-22T18:51:03.141Z,24.10
2018-08-22T18:53:31.414Z,22.60
2018-08-22T18:56:10.947Z,23.40
2018-08-22T18:58:39.537Z,21.17
2018-08-22T19:01:07.806Z,22.10
2018-08-22T19:03:36.398Z,23.90
2018-08-22T19:06:04.986Z,23.97
2018-08-22T19:08:36.577Z,25.17
2018-08-22T19:11:05.092Z,26.70
2018-08-22T19:13:33.286Z,25.90
2018-08-22T19:16:09.168Z,22.37
2018-08-22T19:18:37.642Z,24.17
2018-08-22T19:21:07.053Z,21.80
2018-08-22T19:23:35.307Z,21.30
2018-08-22T19:26:04.410Z,23.00
2018-08-22T19:28:42.689Z,22.63
2018-08-22T19:31:10.882Z,25.60
2018-08-22T19:33:39.063Z,24.13
2018-08-22T19:36:07.253Z,23.70
2018-08-22T19:38:35.438Z,25.80
2018-08-22T19:41:30.803Z,24.00
2018-08-22T19:43:58.991Z,24.90
2018-08-22T19:46:27.176Z,22.73
2018-08-22T19:48:55.408Z,24.17
2018-08-22T19:51:23.562Z,25.13
2018-08-22T19:53:59.293Z,24.27
2018-08-22T19:56:28.237Z,23.07
2018-08-22T19:58:56.349Z,39.87
2018-08-22T20:01:24.544Z,25.30
2018-08-22T20:03:54.547Z,26.77
2018-08-22T20:06:23.128Z,37.73
2018-08-22T20:08:53.171Z,23.67
2018-08-22T20:11:21.379Z,24.90
2018-08-22T20:13:56.772Z,21.77
2018-08-22T20:16:25.023Z,26.13
2018-08-22T20:18:55.363Z,27.93
2018-08-22T20:21:28.778Z,26.70
2018-08-22T20:23:57.065Z,24.40
2018-08-22T20:26:26.032Z,23.73
2018-08-22T20:28:55.319Z,25.63
2018-08-22T20:31:23.508Z,27.07
2018-08-22T20:34:04.690Z,25.43
2018-08-22T20:36:32.940Z,24.23
2018-08-22T20:39:06.058Z,27.37
2018-08-22T20:41:34.618Z,30.60
2018-08-22T20:44:03.215Z,29.27
2018-08-22T20:46:31.464Z,27.30
2018-08-22T20:48:59.641Z,28.50
2018-08-22T20:51:29.658Z,30.30
2018-08-22T20:54:02.020Z,27.67
2018-08-22T20:56:31.191Z,28.67
2018-08-22T20:58:59.715Z,31.03
2018-08-22T21:01:27.906Z,32.00
2018-08-22T21:03:56.111Z,30.77
2018-08-22T21:06:24.309Z,31.70
2018-08-22T21:08:52.523Z,32.97
2018-08-22T21:11:20.746Z,27.73
2018-08-22T21:13:48.983Z,33.23
2018-08-22T21:16:17.117Z,30.10
2018-08-22T21:18:45.295Z,35.77
2018-08-22T21:21:21.666Z,39.13
2018-08-22T21:23:49.934Z,38.70
2018-08-22T21:26:32.585Z,38.10
2018-08-22T21:29:00.775Z,38.73
2018-08-22T21:31:29.063Z,38.87
2018-08-22T21:33:57.328Z,38.37
2018-08-22T21:36:25.517Z,38.67
2018-08-22T21:38:53.729Z,35.80
2018-08-22T21:41:21.923Z,37.63
2018-08-22T21:43:50.121Z,34.87
2018-08-22T21:46:18.293Z,37.23
2018-08-22T21:48:46.475Z,38.20
2018-08-22T21:51:14.683Z,35.00
2018-08-22T21:53:42.858Z,35.67
2018-08-22T21:56:11.047Z,33.23
2018-08-22T21:58:39.223Z,36.13
2018-08-22T22:01:07.462Z,36.10
2018-08-22T22:03:35.642Z,38.17
2018-08-22T22:06:04.803Z,33.97
2018-08-22T22:08:33.062Z,32.50
2018-08-22T22:11:04.307Z,35.33
2018-08-22T22:13:32.553Z,32.97
2018-08-22T22:16:02.290Z,32.33
2018-08-22T22:18:33.358Z,32.73
2018-08-22T22:21:09.780Z,32.60
2018-08-22T22:23:42.390Z,32.20
2018-08-22T22:26:10.578Z,31.30
2018-08-22T22:28:39.580Z,30.77
2018-08-22T22:31:09.790Z,33.80
2018-08-22T22:33:42.269Z,33.33
2018-08-22T22:36:10.436Z,33.97
2018-08-22T22:38:38.615Z,32.57
2018-08-22T22:41:06.834Z,33.77
2018-08-22T22:43:35.430Z,34.63
2018-08-22T22:46:03.625Z,34.27
2018-08-22T22:48:37.128Z,33.67
2018-08-22T22:51:05.640Z,35.43
2018-08-22T22:53:34.015Z,36.20
2018-08-22T22:56:02.240Z,36.47
2018-08-22T22:58:30.440Z,33.83
2018-08-22T23:00:58.612Z,34.30
2018-08-22T23:03:26.786Z,33.37
2018-08-22T23:05:54.951Z,35.80
2018-08-22T23:08:23.869Z,34.10
2018-08-22T23:10:52.042Z,37.20
2018-08-22T23:13:20.225Z,33.77
2018-08-22T23:15:48.406Z,36.97
2018-08-22T23:18:17.847Z,37.07
2018-08-22T23:20:46.044Z,36.30
2018-08-22T23:23:29.711Z,36.40
2018-08-22T23:26:05.484Z,42.20
2018-08-22T23:28:33.762Z,45.70
2018-08-22T23:31:01.947Z,42.30
2018-08-22T23:33:30.134Z,39.93
2018-08-22T23:35:58.306Z,37.57
2018-08-22T23:38:29.568Z,36.47
2018-08-22T23:40:58.544Z,36.93
2018-08-22T23:43:28.803Z,37.77
2018-08-22T23:45:57.967Z,37.57
2018-08-22T23:48:31.403Z,40.23
2018-08-22T23:51:03.314Z,40.27
2018-08-22T23:53:37.550Z,41.43
2018-08-22T23:56:14.146Z,42.93
2018-08-22T23:58:43.303Z,42.47
